Time;durP1;ratioP1;P1;durP2;ratioP2;P2;SDS_P1;SDS_P2;PMS_P1;PMS_P2;Temp;Humidity;BMP_temperature;BMP_pressure;BME280_temperature;BME280_humidity;BME280_pressure;Samples;Min_cycle;Max_cycle;Signal;HPM_P1;HPM_P2
2022/08/29 00:02:03;;;;;;;;;;;;;;;24.15;57.46;100592.38;7401763;19;1570;-68
2022/08/29 00:04:31;;;;;;;;;;;;;;;24.07;57.51;100586.16;7403518;19;1283;-68
2022/08/29 00:06:59;;;;;;;;;;;;;;;24.11;57.84;100604.53;7402048;19;1863;-68
2022/08/29 00:09:28;;;;;;;;;;;;;;;24.02;57.56;100601.00;7403305;19;1406;-69
2022/08/29 00:11:56;;;;;;;;;;;;;;;23.90;57.74;100606.97;7401935;19;1286;-68
2022/08/29 00:14:24;;;;;;;;;;;;;;;23.75;58.03;100604.91;7401766;19;1567;-68
2022/08/29 00:16:55;;;;;;;;;;;;;;;23.80;57.82;100604.44;7403594;19;1334;-68
2022/08/29 00:19:24;;;;;;;;;;;;;;;23.93;57.49;100602.03;7403079;19;1567;-68
2022/08/29 00:21:52;;;;;;;;;;;;;;;24.03;57.82;100618.06;7404008;19;1361;-68
2022/08/29 00:24:21;;;;;;;;;;;;;;;24.00;57.22;100597.66;7402483;19;1553;-68
2022/08/29 00:26:49;;;;;;;;;;;;;;;23.79;57.31;100598.19;7401150;19;1841;-68
2022/08/29 00:29:17;;;;;;;;;;;;;;;23.90;57.71;100582.66;7402731;19;1445;-68
2022/08/29 00:31:46;;;;;;;;;;;;;;;23.97;56.96;100607.94;7404168;19;1326;-68
2022/08/29 00:34:17;;;;;;;;;;;;;;;24.05;57.39;100604.38;7407443;19;1528;-68
2022/08/29 00:36:45;;;;;;;;;;;;;;;24.18;56.76;100602.81;7409864;19;1309;-68
2022/08/29 00:39:13;;;;;;;;;;;;;;;24.16;56.24;100594.06;7410598;19;1379;-58
2022/08/29 00:41:42;;;;;;;;;;;;;;;24.15;56.45;100588.81;7410538;19;1360;-68
2022/08/29 00:44:10;;;;;;;;;;;;;;;24.14;56.51;100593.38;7409963;19;1528;-68
2022/08/29 00:46:45;;;;;;;;;;;;;;;24.11;56.75;100593.72;7408473;19;1848;-69
2022/08/29 00:49:15;;;;;;;;;;;;;;;24.10;56.43;100588.50;7409613;19;1279;-68
2022/08/29 00:51:48;;;;;;;;;;;;;;;24.17;56.02;100587.66;7409083;19;1329;-68
2022/08/29 00:54:17;;;;;;;;;;;;;;;24.09;56.63;100601.16;7409582;19;1465;-69
2022/08/29 00:56:46;;;;;;;;;;;;;;;24.11;56.32;100582.91;7408471;19;1285;-68
2022/08/29 00:59:16;;;;;;;;;;;;;;;24.17;56.61;100590.34;7409041;19;1442;-69
2022/08/29 01:01:45;;;;;;;;;;;;;;;24.11;56.68;100587.47;7409719;19;1314;-68
2022/08/29 01:04:15;;;;;;;;;;;;;;;24.15;56.79;100591.53;7409300;19;1472;-68
2022/08/29 01:06:47;;;;;;;;;;;;;;;24.15;56.58;100578.88;7407179;19;1862;-68
2022/08/29 01:09:15;;;;;;;;;;;;;;;24.14;56.53;100587.97;7408057;19;1564;-68
2022/08/29 01:14:26;;;;;;;;;;;;;;;24.17;56.42;100598.47;7409716;19;1596;-68
2022/08/29 01:16:56;;;;;;;;;;;;;;;24.19;56.24;100593.72;7409190;19;1384;-68
2022/08/29 01:19:32;;;;;;;;;;;;;;;24.08;56.48;100594.09;7409460;19;1476;-69
2022/08/29 01:22:08;;;;;;;;;;;;;;;24.21;55.87;100590.81;7409384;19;1325;-69
2022/08/29 01:24:42;;;;;;;;;;;;;;;24.19;55.67;100606.38;7409800;19;1644;-68
2022/08/29 01:27:13;;;;;;;;;;;;;;;24.07;55.93;100605.06;7405603;19;1846;-68
2022/08/29 01:29:42;;;;;;;;;;;;;;;24.00;55.95;100613.03;7407002;19;1882;-69
2022/08/29 01:32:11;;;;;;;;;;;;;;;23.90;56.02;100590.75;7409005;19;1279;-68
2022/08/29 01:34:40;;;;;;;;;;;;;;;24.04;55.78;100600.84;7409540;19;1310;-69
2022/08/29 01:37:10;;;;;;;;;;;;;;;24.04;55.79;100598.16;7407797;19;1675;-68
2022/08/29 01:39:42;;;;;;;;;;;;;;;24.14;55.93;100606.06;7408186;19;1484;-68
2022/08/29 01:42:11;;;;;;;;;;;;;;;24.14;55.22;100604.19;7407591;19;1270;-68
2022/08/29 01:44:41;;;;;;;;;;;;;;;24.08;55.30;100596.78;7405951;19;1295;-68
2022/08/29 01:47:10;;;;;;;;;;;;;;;24.11;55.60;100609.94;7405980;19;1865;-69
2022/08/29 01:49:39;;;;;;;;;;;;;;;24.02;55.61;100609.13;7407277;19;1350;-68
2022/08/29 01:52:08;;;;;;;;;;;;;;;24.06;55.31;100601.53;7407539;19;1268;-68
2022/08/29 01:54:37;;;;;;;;;;;;;;;24.04;54.31;100600.84;7407914;19;1392;-58
2022/08/29 01:57:08;;;;;;;;;;;;;;;23.97;55.60;100605.25;7406775;19;1350;-58
2022/08/29 01:59:36;;;;;;;;;;;;;;;23.88;56.00;100609.00;7407572;19;1534;-58
2022/08/29 02:02:06;;;;;;;;;;;;;;;24.11;55.35;100609.09;7383607;19;3261;-36
2022/08/29 02:07:19;;;;;;;;;;;;;;;24.09;54.46;100606.56;7399240;19;2276;-36
2022/08/29 02:09:48;;;;;;;;;;;;;;;24.03;54.28;100612.66;7395247;19;2378;-41
2022/08/29 02:12:23;;;;;;;;;;;;;;;23.99;54.55;100595.13;7399223;19;1545;-41
2022/08/29 02:14:52;;;;;;;;;;;;;;;24.12;55.08;100617.03;7402769;19;1796;-41
2022/08/29 02:17:22;;;;;;;;;;;;;;;24.05;54.84;100599.81;7403788;19;1666;-41
2022/08/29 02:19:51;;;;;;;;;;;;;;;24.07;55.21;100605.88;7402317;19;1654;-41
2022/08/29 02:22:21;;;;;;;;;;;;;;;24.05;55.49;100612.50;7403108;19;1584;-41
2022/08/29 02:24:49;;;;;;;;;;;;;;;24.05;54.85;100626.84;7401437;19;1633;-41
2022/08/29 02:27:20;;;;;;;;;;;;;;;24.08;55.15;100618.41;7399866;19;1837;-41
2022/08/29 02:29:48;;;;;;;;;;;;;;;24.06;55.24;100625.00;7401786;19;1515;-41
2022/08/29 02:32:16;;;;;;;;;;;;;;;23.95;55.06;100620.78;7396201;19;1653;-42
2022/08/29 02:34:45;;;;;;;;;;;;;;;24.00;55.15;100619.25;7401531;19;1517;-42
2022/08/29 02:37:14;;;;;;;;;;;;;;;24.01;54.71;100622.78;7402073;19;1539;-41
2022/08/29 02:39:42;;;;;;;;;;;;;;;23.99;55.02;100614.00;7400927;19;1586;-41
2022/08/29 02:42:10;;;;;;;;;;;;;;;23.88;55.45;100623.34;7401323;19;1435;-42
2022/08/29 02:44:41;;;;;;;;;;;;;;;24.00;55.10;100613.03;7401968;19;1614;-42
2022/08/29 02:47:10;;;;;;;;;;;;;;;24.01;54.84;100631.75;7400462;19;2225;-42
2022/08/29 02:49:38;;;;;;;;;;;;;;;23.97;55.03;100614.22;7400960;19;1672;-42
2022/08/29 02:52:07;;;;;;;;;;;;;;;23.95;55.10;100628.88;7400318;19;1595;-42
2022/08/29 02:54:35;;;;;;;;;;;;;;;23.94;54.94;100614.53;7396965;19;1570;-42
2022/08/29 02:57:04;;;;;;;;;;;;;;;24.04;54.80;100629.72;7399108;19;1674;-42
2022/08/29 02:59:33;;;;;;;;;;;;;;;23.97;54.57;100634.97;7400257;19;1516;-41
2022/08/29 03:02:04;;;;;;;;;;;;;;;23.80;54.48;100645.78;7400833;19;1631;-42
2022/08/29 03:04:36;;;;;;;;;;;;;;;23.51;55.00;100631.94;7400067;19;1608;-43
2022/08/29 03:07:06;;;;;;;;;;;;;;;23.65;55.07;100631.25;7400086;19;1858;-43
2022/08/29 03:09:36;;;;;;;;;;;;;;;23.79;54.82;100644.09;7402268;19;1450;-43
2022/08/29 03:12:04;;;;;;;;;;;;;;;23.83;54.55;100647.28;7397722;19;1565;-44
2022/08/29 03:14:32;;;;;;;;;;;;;;;23.91;55.08;100641.88;7402193;19;1625;-43
2022/08/29 03:17:03;;;;;;;;;;;;;;;23.96;54.70;100642.22;7398153;19;1650;-43
2022/08/29 03:19:32;;;;;;;;;;;;;;;23.91;54.97;100662.66;7400887;19;1466;-43
2022/08/29 03:22:01;;;;;;;;;;;;;;;23.85;55.12;100657.94;7398892;19;1651;-43
2022/08/29 03:24:29;;;;;;;;;;;;;;;23.85;54.98;100649.84;7399434;19;1632;-43
2022/08/29 03:26:57;;;;;;;;;;;;;;;23.87;55.06;100650.50;7400719;19;1865;-41
2022/08/29 03:29:26;;;;;;;;;;;;;;;23.87;54.85;100653.22;7400191;19;1587;-41
2022/08/29 03:31:57;;;;;;;;;;;;;;;23.98;55.04;100669.91;7401800;19;1444;-43
2022/08/29 03:34:28;;;;;;;;;;;;;;;23.91;55.18;100657.25;7401451;19;1723;-42
2022/08/29 03:36:56;;;;;;;;;;;;;;;23.91;55.33;100662.66;7400653;19;1548;-44
2022/08/29 03:39:25;;;;;;;;;;;;;;;23.88;54.95;100661.16;7400172;19;1697;-42
2022/08/29 03:41:53;;;;;;;;;;;;;;;23.85;54.78;100658.78;7400218;19;1654;-42
2022/08/29 03:44:21;;;;;;;;;;;;;;;23.89;55.02;100668.22;7398741;19;1923;-43
2022/08/29 03:46:49;;;;;;;;;;;;;;;23.93;54.84;100687.63;7400448;19;1861;-41
2022/08/29 03:49:18;;;;;;;;;;;;;;;23.92;54.77;100678.69;7399674;19;1479;-42
2022/08/29 03:51:49;;;;;;;;;;;;;;;23.95;54.78;100672.09;7400245;19;1434;-43
2022/08/29 03:54:17;;;;;;;;;;;;;;;23.75;54.69;100696.72;7400900;19;1482;-41
2022/08/29 03:56:45;;;;;;;;;;;;;;;23.66;54.86;100692.34;7399861;19;1575;-41
2022/08/29 03:59:14;;;;;;;;;;;;;;;23.53;55.05;100694.69;7399310;19;1670;-41
2022/08/29 04:01:42;;;;;;;;;;;;;;;23.53;54.73;100697.38;7399237;19;1889;-41
2022/08/29 04:05:05;;;;;;;;;;;;;;;23.43;54.76;100698.38;7400587;19;1476;-41
2022/08/29 04:07:02;;;;;;;;;;;;;;;23.47;54.32;100698.06;7397945;19;1984;-42
2022/08/29 04:09:30;;;;;;;;;;;;;;;23.55;54.43;100716.94;7408249;19;1770;-42
2022/08/29 04:11:58;;;;;;;;;;;;;;;23.51;54.59;100704.81;7406812;19;1756;-41
2022/08/29 04:14:28;;;;;;;;;;;;;;;23.55;54.34;100706.16;7408088;19;1907;-42
2022/08/29 04:16:56;;;;;;;;;;;;;;;23.53;54.43;100718.97;7406899;19;1676;-42
2022/08/29 04:19:25;;;;;;;;;;;;;;;23.58;54.00;100708.53;7407701;19;1592;-41
2022/08/29 04:21:53;;;;;;;;;;;;;;;23.58;53.96;100716.63;7407655;19;1952;-42
2022/08/29 04:24:24;;;;;;;;;;;;;;;23.59;53.83;100702.09;7404913;19;1484;-41
2022/08/29 04:26:52;;;;;;;;;;;;;;;23.57;53.90;100704.13;7406450;19;1867;-41
2022/08/29 04:29:20;;;;;;;;;;;;;;;23.61;54.18;100710.88;7406644;19;1817;-43
2022/08/29 04:31:49;;;;;;;;;;;;;;;23.68;53.62;100714.63;7407085;19;1669;-41
2022/08/29 04:34:17;;;;;;;;;;;;;;;23.70;53.62;100704.50;7405676;19;1588;-43
2022/08/29 04:36:46;;;;;;;;;;;;;;;23.73;53.84;100703.31;7404609;19;1470;-42
2022/08/29 04:39:15;;;;;;;;;;;;;;;23.71;53.57;100710.72;7406531;19;1597;-41
2022/08/29 04:41:45;;;;;;;;;;;;;;;23.67;53.34;100714.78;7407127;19;1770;-41
2022/08/29 04:44:14;;;;;;;;;;;;;;;23.78;53.78;100711.78;7404768;19;1695;-43
2022/08/29 04:46:42;;;;;;;;;;;;;;;23.79;53.10;100706.19;7406288;19;1874;-42
2022/08/29 04:49:11;;;;;;;;;;;;;;;23.88;53.44;100707.06;7404333;19;1972;-40
2022/08/29 04:51:39;;;;;;;;;;;;;;;23.92;52.91;100716.50;7405518;19;1501;-41
2022/08/29 04:54:08;;;;;;;;;;;;;;;23.97;53.65;100697.06;7403158;19;1520;-42
2022/08/29 04:56:37;;;;;;;;;;;;;;;24.08;53.57;100696.75;7405172;19;1595;-42
2022/08/29 04:59:07;;;;;;;;;;;;;;;24.15;53.01;100724.78;7404592;19;1418;-43
2022/08/29 05:01:36;;;;;;;;;;;;;;;24.08;53.19;100702.13;7405521;19;1818;-43
2022/08/29 05:04:04;;;;;;;;;;;;;;;24.11;53.37;100707.19;7403858;19;1648;-43
2022/08/29 05:06:32;;;;;;;;;;;;;;;24.09;53.95;100703.81;7403953;19;1604;-41
2022/08/29 05:09:01;;;;;;;;;;;;;;;24.10;55.90;100712.78;7405567;19;1472;-43
2022/08/29 05:11:30;;;;;;;;;;;;;;;24.05;54.24;100702.47;7404082;19;1404;-42
2022/08/29 05:13:59;;;;;;;;;;;;;;;24.21;55.32;100712.41;7403499;19;1377;-43
2022/08/29 05:16:35;;;;;;;;;;;;;;;24.21;55.14;100721.38;7403383;19;1669;-41
2022/08/29 05:19:05;;;;;;;;;;;;;;;24.27;54.24;100708.19;7400997;19;2190;-44
2022/08/29 05:21:35;;;;;;;;;;;;;;;24.37;55.21;100700.72;7403158;19;1424;-43
2022/08/29 05:24:04;;;;;;;;;;;;;;;24.44;55.04;100696.31;7403104;19;1538;-41
2022/08/29 05:26:39;;;;;;;;;;;;;;;24.41;55.16;100707.47;7402669;19;1925;-43
2022/08/29 05:29:12;;;;;;;;;;;;;;;24.56;55.43;100699.53;7403452;19;1480;-38
2022/08/29 05:31:53;;;;;;;;;;;;;;;24.58;55.05;100703.75;7403594;19;1784;-38
2022/08/29 05:34:37;;;;;;;;;;;;;;;24.68;55.05;100702.72;7403210;19;1755;-39
2022/08/29 05:37:07;;;;;;;;;;;;;;;24.68;55.38;100710.81;7404580;19;2056;-39
2022/08/29 05:39:36;;;;;;;;;;;;;;;24.69;55.56;100715.19;7403660;19;1477;-39
2022/08/29 05:42:05;;;;;;;;;;;;;;;24.75;55.87;100709.09;7403593;19;1411;-39
2022/08/29 05:44:34;;;;;;;;;;;;;;;24.63;55.94;100695.13;7405364;19;1752;-39
2022/08/29 05:47:05;;;;;;;;;;;;;;;24.65;56.13;100708.44;7401354;19;1851;-39
2022/08/29 05:49:34;;;;;;;;;;;;;;;24.70;56.00;100706.06;7405025;19;1569;-39
2022/08/29 05:52:02;;;;;;;;;;;;;;;24.68;56.37;100705.41;7402142;19;1882;-39
2022/08/29 05:54:34;;;;;;;;;;;;;;;24.74;56.50;100704.72;7404277;19;1534;-37
2022/08/29 05:57:02;;;;;;;;;;;;;;;24.82;56.23;100720.91;7401386;19;1460;-38
2022/08/29 05:59:30;;;;;;;;;;;;;;;24.83;56.57;100721.75;7400887;19;1517;-39
2022/08/29 06:02:00;;;;;;;;;;;;;;;24.81;56.26;100713.81;7400862;19;1621;-38
2022/08/29 06:04:38;;;;;;;;;;;;;;;24.87;56.12;100723.94;7400556;19;1466;-38
2022/08/29 06:07:12;;;;;;;;;;;;;;;24.88;56.53;100717.50;7402571;19;1842;-38
2022/08/29 06:09:45;;;;;;;;;;;;;;;24.87;56.60;100723.06;7403092;19;1597;-38
2022/08/29 06:12:15;;;;;;;;;;;;;;;24.86;56.72;100722.22;7403609;19;1649;-38
2022/08/29 06:14:46;;;;;;;;;;;;;;;24.87;56.38;100737.47;7404861;19;1673;-38
2022/08/29 06:20:19;;;;;;;;;;;;;;;24.95;56.66;100729.31;7398685;19;2314;-38
2022/08/29 06:23:00;;;;;;;;;;;;;;;24.89;57.14;100715.63;7400120;19;1565;-39
2022/08/29 06:25:34;;;;;;;;;;;;;;;24.94;56.90;100729.47;7402161;19;1749;-38
2022/08/29 06:28:05;;;;;;;;;;;;;;;24.95;57.02;100710.38;7398332;19;1857;-38
2022/08/29 06:30:37;;;;;;;;;;;;;;;24.89;57.92;100721.91;7398862;19;1861;-37
2022/08/29 06:33:11;;;;;;;;;;;;;;;24.88;57.54;100722.06;7403429;19;1778;-39
2022/08/29 06:35:42;;;;;;;;;;;;;;;24.93;57.49;100709.69;7403255;19;1844;-38
2022/08/29 06:38:13;;;;;;;;;;;;;;;25.05;57.30;100717.41;7402685;19;1951;-36
2022/08/29 06:40:50;;;;;;;;;;;;;;;25.10;57.39;100734.81;7402061;19;1606;-38
2022/08/29 06:43:22;;;;;;;;;;;;;;;25.10;57.46;100729.38;7401688;19;1732;-37
2022/08/29 06:45:52;;;;;;;;;;;;;;;25.09;57.54;100713.31;7403257;19;1545;-38
2022/08/29 06:48:21;;;;;;;;;;;;;;;25.11;57.37;100719.41;7401230;19;1867;-38
2022/08/29 06:50:59;;;;;;;;;;;;;;;25.10;57.69;100736.69;7402160;19;1658;-37
2022/08/29 06:53:33;;;;;;;;;;;;;;;25.14;57.83;100713.66;7401390;19;1726;-38
2022/08/29 06:56:06;;;;;;;;;;;;;;;25.22;57.69;100726.31;7402398;19;1716;-37
2022/08/29 06:58:52;;;;;;;;;;;;;;;25.10;57.74;100723.16;7398892;19;1559;-38
2022/08/29 07:01:30;;;;;;;;;;;;;;;25.12;58.21;100731.94;7402989;19;1868;-37
2022/08/29 07:04:07;;;;;;;;;;;;;;;25.17;58.45;100726.84;7400599;19;1641;-38
2022/08/29 07:06:42;;;;;;;;;;;;;;;25.18;57.97;100726.63;7402004;19;1433;-37
2022/08/29 07:09:17;;;;;;;;;;;;;;;25.19;58.64;100720.22;7401376;19;1853;-38
2022/08/29 07:11:49;;;;;;;;;;;;;;;25.22;58.29;100732.56;7402886;19;1669;-38
2022/08/29 07:14:39;;;;;;;;;;;;;;;25.22;59.43;100716.34;7402003;19;1923;-38
2022/08/29 07:17:08;;;;;;;;;;;;;;;25.30;58.46;100718.16;7402759;19;1401;-37
2022/08/29 07:19:42;;;;;;;;;;;;;;;25.19;58.86;100735.63;7402323;19;1685;-38
2022/08/29 07:22:25;;;;;;;;;;;;;;;25.23;58.47;100734.28;7401076;19;1968;-37
2022/08/29 07:24:57;;;;;;;;;;;;;;;25.17;59.02;100718.72;7400268;19;1881;-37
2022/08/29 07:27:28;;;;;;;;;;;;;;;25.19;58.92;100738.34;7397550;19;1846;-37
2022/08/29 07:30:01;;;;;;;;;;;;;;;25.19;59.45;100730.22;7400641;19;1678;-37
2022/08/29 07:32:29;;;;;;;;;;;;;;;25.27;58.76;100735.59;7399588;19;1530;-37
2022/08/29 07:34:57;;;;;;;;;;;;;;;25.20;58.93;100730.00;7397285;19;1665;-36
2022/08/29 07:37:28;;;;;;;;;;;;;;;25.29;59.32;100738.97;7397503;19;1650;-36
2022/08/29 07:39:57;;;;;;;;;;;;;;;25.22;59.63;100731.75;7400287;19;1609;-37
2022/08/29 07:42:26;;;;;;;;;;;;;;;25.24;59.45;100727.81;7398030;19;1733;-36
2022/08/29 07:44:58;;;;;;;;;;;;;;;25.28;59.33;100737.28;7399775;19;1460;-37
2022/08/29 07:47:31;;;;;;;;;;;;;;;25.34;59.23;100720.31;7398969;19;1485;-37
2022/08/29 07:50:00;;;;;;;;;;;;;;;25.34;59.15;100719.47;7400770;19;1742;-37
2022/08/29 07:52:34;;;;;;;;;;;;;;;25.33;59.36;100707.81;7401163;19;1339;-37
2022/08/29 07:55:07;;;;;;;;;;;;;;;25.32;59.50;100714.25;7399732;19;1575;-38
2022/08/29 07:57:38;;;;;;;;;;;;;;;25.28;59.60;100721.03;7399113;19;1528;-37
2022/08/29 08:00:21;;;;;;;;;;;;;;;25.27;59.50;100713.09;7398825;19;1900;-37
2022/08/29 08:02:58;;;;;;;;;;;;;;;25.29;59.67;100721.91;7399605;19;1897;-37
2022/08/29 08:05:31;;;;;;;;;;;;;;;25.32;59.64;100719.66;7400120;19;1623;-37
2022/08/29 08:08:08;;;;;;;;;;;;;;;25.31;59.74;100717.16;7399383;19;1861;-37
2022/08/29 08:13:34;;;;;;;;;;;;;;;25.32;59.89;100716.13;7395906;19;1751;-37
2022/08/29 08:16:05;;;;;;;;;;;;;;;25.30;60.25;100724.41;7401532;19;1714;-37
2022/08/29 08:18:33;;;;;;;;;;;;;;;25.28;59.93;100714.78;7399550;19;1880;-38
2022/08/29 08:21:05;;;;;;;;;;;;;;;25.27;60.17;100713.94;7399005;19;1490;-37
2022/08/29 08:23:38;;;;;;;;;;;;;;;25.34;60.24;100698.66;7400245;19;1757;-37
2022/08/29 08:26:11;;;;;;;;;;;;;;;25.39;60.18;100709.81;7398585;19;1670;-38
2022/08/29 08:28:50;;;;;;;;;;;;;;;25.37;60.13;100717.28;7399329;19;1863;-37
2022/08/29 08:31:27;;;;;;;;;;;;;;;25.35;60.09;100718.47;7399947;19;1642;-37
2022/08/29 08:36:41;;;;;;;;;;;;;;;25.33;60.11;100713.25;7397933;19;1492;-38
2022/08/29 08:39:16;;;;;;;;;;;;;;;25.33;60.05;100713.25;7398205;19;1872;-37
2022/08/29 08:42:03;;;;;;;;;;;;;;;25.36;59.78;100718.28;7398072;19;1771;-38
2022/08/29 08:44:49;;;;;;;;;;;;;;;25.36;60.15;100722.84;7396262;19;1499;-39
2022/08/29 08:47:25;;;;;;;;;;;;;;;25.37;60.08;100728.09;7398123;19;1868;-39
2022/08/29 08:50:06;;;;;;;;;;;;;;;25.35;60.28;100715.78;7397187;19;1901;-38
2022/08/29 08:52:43;;;;;;;;;;;;;;;25.36;60.16;100718.28;7396227;19;1657;-38
2022/08/29 08:55:29;;;;;;;;;;;;;;;25.35;60.60;100732.84;7401799;19;1910;-38
2022/08/29 08:58:16;;;;;;;;;;;;;;;25.35;60.60;100723.91;7405328;19;1595;-38
2022/08/29 09:00:49;;;;;;;;;;;;;;;25.35;60.61;100716.59;7406657;19;1830;-38
2022/08/29 09:03:29;;;;;;;;;;;;;;;25.38;60.47;100726.22;7402777;19;1760;-38
2022/08/29 09:06:06;;;;;;;;;;;;;;;25.36;60.62;100729.09;7407687;19;1656;-38
2022/08/29 09:08:43;;;;;;;;;;;;;;;25.34;60.44;100709.50;7406584;19;1867;-38
2022/08/29 09:11:20;;;;;;;;;;;;;;;25.33;60.62;100710.53;7405041;19;1737;-38
2022/08/29 09:13:53;;;;;;;;;;;;;;;25.35;60.75;100716.59;7405729;19;1935;-38
2022/08/29 09:16:28;;;;;;;;;;;;;;;25.34;60.75;100709.50;7406032;19;1821;-38
2022/08/29 09:18:58;;;;;;;;;;;;;;;25.33;60.76;100707.81;7404082;19;1749;-38
2022/08/29 09:21:30;;;;;;;;;;;;;;;25.36;60.93;100715.56;7406103;19;1538;-38
2022/08/29 09:24:20;;;;;;;;;;;;;;;25.37;60.79;100724.56;7403693;19;2019;-39
2022/08/29 09:26:51;;;;;;;;;;;;;;;25.37;61.05;100721.84;7404418;19;1514;-38
2022/08/29 09:29:23;;;;;;;;;;;;;;;25.38;60.77;100716.22;7405179;19;1852;-38
2022/08/29 09:32:09;;;;;;;;;;;;;;;24.71;61.43;100707.75;7405276;19;1452;-38
2022/08/29 09:34:43;;;;;;;;;;;;;;;23.76;62.13;100706.50;7403995;19;1511;-38
2022/08/29 09:37:22;;;;;;;;;;;;;;;23.47;61.52;100719.66;7404255;19;1485;-37
2022/08/29 09:39:59;;;;;;;;;;;;;;;23.48;61.65;100715.94;7404059;19;1774;-38
2022/08/29 09:42:31;;;;;;;;;;;;;;;23.38;61.91;100724.19;7404903;19;1735;-38
2022/08/29 09:45:01;;;;;;;;;;;;;;;23.32;62.18;100717.59;7404010;19;1795;-38
2022/08/29 09:47:30;;;;;;;;;;;;;;;23.24;62.17;100714.88;7405142;19;1689;-38
2022/08/29 09:50:07;;;;;;;;;;;;;;;23.24;61.88;100709.50;7401790;19;1853;-38
2022/08/29 09:52:36;;;;;;;;;;;;;;;23.25;62.13;100716.56;7403699;19;1631;-38
2022/08/29 09:55:19;;;;;;;;;;;;;;;23.16;62.20;100706.78;7402844;19;1997;-38
2022/08/29 09:57:51;;;;;;;;;;;;;;;23.12;61.82;100695.47;7400900;19;1598;-38
2022/08/29 10:00:25;;;;;;;;;;;;;;;23.14;61.97;100695.28;7400187;19;1632;-38
2022/08/29 10:02:55;;;;;;;;;;;;;;;23.15;62.07;100707.78;7403212;19;1673;-38
2022/08/29 10:05:35;;;;;;;;;;;;;;;23.13;61.89;100696.31;7398666;19;1674;-38
2022/08/29 10:08:04;;;;;;;;;;;;;;;23.14;61.61;100708.75;7404245;19;1584;-38
2022/08/29 10:10:35;;;;;;;;;;;;;;;23.05;61.73;100698.97;7401521;19;1847;-38
2022/08/29 10:13:07;;;;;;;;;;;;;;;23.05;61.59;100698.97;7400881;19;1923;-38
2022/08/29 10:15:38;;;;;;;;;;;;;;;23.01;61.56;100701.13;7402180;19;1549;-38
2022/08/29 10:18:27;;;;;;;;;;;;;;;22.96;61.77;100701.63;7404272;19;1592;-38
2022/08/29 10:21:03;;;;;;;;;;;;;;;22.96;62.08;100690.84;7402978;19;1884;-38
2022/08/29 10:23:36;;;;;;;;;;;;;;;23.07;62.43;100692.41;7403072;19;1675;-38
2022/08/29 10:26:08;;;;;;;;;;;;;;;23.07;62.89;100697.78;7401451;19;1763;-38
2022/08/29 10:28:41;;;;;;;;;;;;;;;23.14;63.28;100698.84;7402579;19;2236;-38
2022/08/29 10:31:13;;;;;;;;;;;;;;;23.17;63.13;100692.25;7403864;19;1688;-38
2022/08/29 10:33:55;;;;;;;;;;;;;;;23.20;63.59;100689.25;7403372;19;1879;-39
2022/08/29 10:36:29;;;;;;;;;;;;;;;23.23;63.61;100686.19;7403104;19;1889;-38
2022/08/29 10:39:00;;;;;;;;;;;;;;;23.18;63.77;100683.19;7402708;19;1966;-38
2022/08/29 10:41:34;;;;;;;;;;;;;;;23.15;63.83;100694.28;7403392;19;1352;-38
2022/08/29 10:44:08;;;;;;;;;;;;;;;23.09;64.18;100681.47;7402279;19;1517;-38
2022/08/29 10:46:45;;;;;;;;;;;;;;;23.15;63.93;100683.50;7400072;19;1663;-38
2022/08/29 10:49:20;;;;;;;;;;;;;;;23.13;64.09;100677.41;7398770;19;1870;-38
2022/08/29 10:51:57;;;;;;;;;;;;;;;23.17;64.01;100682.31;7402887;19;1629;-38
2022/08/29 10:54:30;;;;;;;;;;;;;;;23.25;64.22;100692.28;7401284;19;1381;-38
2022/08/29 10:56:59;;;;;;;;;;;;;;;23.21;64.04;100670.19;7399794;19;1475;-38
2022/08/29 10:59:41;;;;;;;;;;;;;;;23.17;63.90;100663.44;7401039;19;1567;-38
2022/08/29 11:02:13;;;;;;;;;;;;;;;23.14;64.31;100671.00;7398701;19;1509;-38
2022/08/29 11:04:44;;;;;;;;;;;;;;;23.04;64.73;100671.16;7400127;19;1490;-37
2022/08/29 11:07:17;;;;;;;;;;;;;;;23.26;64.28;100669.69;7399658;19;1499;-38
2022/08/29 11:09:49;;;;;;;;;;;;;;;23.12;64.48;100660.41;7401954;19;1830;-38
2022/08/29 11:12:19;;;;;;;;;;;;;;;23.06;64.53;100652.09;7398184;19;1355;-38
2022/08/29 11:14:51;;;;;;;;;;;;;;;23.07;64.65;100656.50;7400948;19;1550;-38
2022/08/29 11:17:20;;;;;;;;;;;;;;;23.11;64.39;100655.16;7398037;19;1413;-38
2022/08/29 11:19:54;;;;;;;;;;;;;;;23.10;64.54;100650.75;7399299;19;1455;-39
2022/08/29 11:22:26;;;;;;;;;;;;;;;23.35;66.03;100646.25;7401977;19;1572;-38
2022/08/29 11:24:58;;;;;;;;;;;;;;;23.64;66.18;100640.38;7401676;19;1498;-38
2022/08/29 11:27:32;;;;;;;;;;;;;;;23.96;61.60;100644.09;7399515;19;1923;-38
2022/08/29 11:30:04;;;;;;;;;;;;;;;23.88;58.03;100638.69;7399933;19;1857;-38
2022/08/29 11:32:36;;;;;;;;;;;;;;;23.92;57.10;100626.53;7403474;19;1821;-38
2022/08/29 11:35:08;;;;;;;;;;;;;;;24.01;57.62;100614.69;7399665;19;1778;-38
2022/08/29 11:37:51;;;;;;;;;;;;;;;23.95;56.91;100628.88;7397577;19;1855;-39
2022/08/29 11:40:34;;;;;;;;;;;;;;;23.94;56.64;100622.66;7397442;19;2167;-39
2022/08/29 11:43:04;;;;;;;;;;;;;;;24.01;55.91;100620.09;7400809;19;1719;-37
2022/08/29 11:45:37;;;;;;;;;;;;;;;23.97;56.17;100624.16;7399011;19;1703;-38
2022/08/29 11:48:19;;;;;;;;;;;;;;;23.96;56.61;100617.91;7400641;19;1579;-39
2022/08/29 11:50:47;;;;;;;;;;;;;;;24.18;56.83;100616.34;7397061;19;1905;-38
2022/08/29 11:53:32;;;;;;;;;;;;;;;24.13;56.86;100624.13;7398880;19;1688;-38
2022/08/29 11:56:15;;;;;;;;;;;;;;;24.01;57.57;100615.56;7397577;19;1652;-38
2022/08/29 11:58:48;;;;;;;;;;;;;;;24.04;56.79;100603.56;7397602;19;1558;-38
2022/08/29 12:01:31;;;;;;;;;;;;;;;23.98;56.99;100615.03;7399356;19;1939;-38
2022/08/29 12:04:00;;;;;;;;;;;;;;;24.13;56.46;100628.69;7398117;19;1762;-38
2022/08/29 12:06:55;;;;;;;;;;;;;;;24.15;56.92;100615.84;7394188;19;1742;-39
2022/08/29 12:09:47;;;;;;;;;;;;;;;24.26;57.22;100620.03;7394584;19;1863;-38
2022/08/29 12:12:35;;;;;;;;;;;;;;;24.24;56.83;100592.34;7400019;19;1595;-38
2022/08/29 12:15:35;;;;;;;;;;;;;;;24.02;56.46;100617.22;7400186;19;1843;-38
2022/08/29 12:18:26;;;;;;;;;;;;;;;23.87;56.01;100607.28;7399520;19;1802;-38
2022/08/29 12:20:55;;;;;;;;;;;;;;;23.80;55.35;100599.06;7397888;19;1615;-37
2022/08/29 12:23:26;;;;;;;;;;;;;;;23.79;54.55;100594.66;7399480;19;1852;-38
2022/08/29 12:25:55;;;;;;;;;;;;;;;23.61;54.10;100584.00;7400116;19;1783;-39
2022/08/29 12:28:31;;;;;;;;;;;;;;;23.61;53.56;100601.03;7401030;19;1480;-38
2022/08/29 12:31:08;;;;;;;;;;;;;;;23.59;53.13;100588.75;7405917;19;1845;-38
2022/08/29 12:33:43;;;;;;;;;;;;;;;23.62;52.37;100588.41;7408675;19;1661;-38
2022/08/29 12:36:19;;;;;;;;;;;;;;;23.52;52.15;100593.16;7407028;19;1089;-37
2022/08/29 12:38:54;;;;;;;;;;;;;;;23.49;51.76;100579.97;7405791;19;1409;-37
2022/08/29 12:41:39;;;;;;;;;;;;;;;23.66;51.80;100576.25;7407609;19;1782;-38
2022/08/29 12:44:12;;;;;;;;;;;;;;;23.65;51.27;100574.56;7408106;19;2027;-38
2022/08/29 12:46:41;;;;;;;;;;;;;;;23.64;51.57;100575.59;7404295;19;1556;-44
2022/08/29 12:49:20;;;;;;;;;;;;;;;23.61;50.79;100575.91;7406565;19;1854;-44
2022/08/29 12:51:51;;;;;;;;;;;;;;;23.53;50.71;100563.25;7405999;19;1621;-44
2022/08/29 12:54:30;;;;;;;;;;;;;;;23.51;50.53;100569.84;7407216;19;1671;-45
2022/08/29 12:56:58;;;;;;;;;;;;;;;23.41;50.72;100576.25;7403767;19;1422;-44
2022/08/29 12:59:27;;;;;;;;;;;;;;;23.47;50.38;100553.16;7406818;19;1709;-44
2022/08/29 13:01:56;;;;;;;;;;;;;;;23.41;50.81;100554.66;7405701;19;1693;-44
2022/08/29 13:04:31;;;;;;;;;;;;;;;23.56;50.56;100557.53;7406161;19;1804;-44
2022/08/29 13:07:01;;;;;;;;;;;;;;;23.53;49.90;100544.38;7406353;19;1476;-44
2022/08/29 13:09:30;;;;;;;;;;;;;;;23.59;50.27;100551.78;7406050;19;1863;-44
2022/08/29 13:12:09;;;;;;;;;;;;;;;23.39;50.23;100543.19;7405456;19;1708;-43
2022/08/29 13:14:47;;;;;;;;;;;;;;;23.25;50.27;100553.84;7405509;19;1802;-43
2022/08/29 13:17:16;;;;;;;;;;;;;;;23.23;50.03;100556.72;7405928;19;1775;-44
2022/08/29 13:19:59;;;;;;;;;;;;;;;23.33;50.21;100560.06;7404159;19;1673;-44
2022/08/29 13:22:30;;;;;;;;;;;;;;;23.48;49.86;100544.06;7403008;19;1772;-44
2022/08/29 13:25:04;;;;;;;;;;;;;;;23.54;49.54;100558.72;7405690;19;1352;-44
2022/08/29 13:27:32;;;;;;;;;;;;;;;23.50;49.50;100547.44;7404263;19;1737;-43
2022/08/29 13:30:01;;;;;;;;;;;;;;;23.52;49.30;100542.69;7404781;19;1858;-44